createdAt,value
2016-11-25T00:00:00.786Z,0
2016-11-25T00:00:42.129Z,0
2016-11-25T00:01:22.307Z,0
2016-11-25T00:02:03.089Z,0
2016-11-25T00:02:43.816Z,0
2016-11-25T00:03:24.591Z,0
2016-11-25T00:04:05.379Z,0
2016-11-25T00:04:46.143Z,0
2016-11-25T00:05:26.903Z,0
2016-11-25T00:06:07.695Z,0
2016-11-25T00:06:48.444Z,0
2016-11-25T00:07:29.209Z,0
2016-11-25T00:08:09.980Z,0
2016-11-25T00:08:50.748Z,0
2016-11-25T00:09:31.501Z,0
2016-11-25T00:10:12.274Z,0
2016-11-25T00:10:53.041Z,0
2016-11-25T00:11:33.792Z,0
2016-11-25T00:12:14.556Z,0
2016-11-25T00:12:55.339Z,0
2016-11-25T00:13:36.084Z,0
2016-11-25T00:14:16.881Z,0
2016-11-25T00:14:57.630Z,0
2016-11-25T00:15:38.390Z,0
2016-11-25T00:16:19.156Z,0
2016-11-25T00:16:59.959Z,0
2016-11-25T00:17:40.733Z,0
2016-11-25T00:18:21.517Z,0
2016-11-25T00:19:02.293Z,0
2016-11-25T00:19:43.060Z,0
2016-11-25T00:20:23.835Z,0
2016-11-25T00:21:04.610Z,0
2016-11-25T00:21:45.409Z,0
2016-11-25T00:22:26.184Z,0
2016-11-25T00:23:06.935Z,0
2016-11-25T00:23:47.719Z,0
2016-11-25T00:24:28.472Z,0
2016-11-25T00:25:09.245Z,0
2016-11-25T00:25:50.020Z,0
2016-11-25T00:26:30.772Z,0
2016-11-25T00:27:11.545Z,0
2016-11-25T00:27:52.354Z,0
2016-11-25T00:28:33.126Z,0
2016-11-25T00:29:13.895Z,0
2016-11-25T00:29:54.684Z,0
2016-11-25T00:30:35.429Z,0
2016-11-25T00:31:16.189Z,0
2016-11-25T00:31:56.956Z,0
2016-11-25T00:32:37.717Z,0
2016-11-25T00:33:18.461Z,0
2016-11-25T00:33:59.276Z,0
2016-11-25T00:34:40.028Z,0
2016-11-25T00:35:20.743Z,0
2016-11-25T00:36:01.524Z,0
2016-11-25T00:36:42.285Z,0
2016-11-25T00:37:23.073Z,0
2016-11-25T00:38:03.817Z,0
2016-11-25T00:38:44.594Z,0
2016-11-25T00:39:25.374Z,0
2016-11-25T00:40:06.125Z,0
2016-11-25T00:40:46.917Z,0
2016-11-25T00:41:27.650Z,0
2016-11-25T00:42:08.392Z,0
2016-11-25T00:42:49.152Z,0
2016-11-25T00:43:29.906Z,0
2016-11-25T00:44:10.645Z,0
2016-11-25T00:44:51.434Z,0
2016-11-25T00:45:32.192Z,0
2016-11-25T00:46:12.940Z,0
2016-11-25T00:46:53.718Z,0
2016-11-25T00:47:34.480Z,0
2016-11-25T00:48:15.246Z,0
2016-11-25T00:48:56.026Z,0
2016-11-25T00:49:36.788Z,0
2016-11-25T00:50:17.560Z,0
2016-11-25T00:50:58.308Z,0
2016-11-25T00:51:39.094Z,0
2016-11-25T00:52:19.849Z,0
2016-11-25T00:53:00.706Z,0
2016-11-25T00:53:41.466Z,0
2016-11-25T00:54:22.232Z,0
2016-11-25T00:55:03.000Z,0
2016-11-25T00:55:43.775Z,0
2016-11-25T00:56:24.581Z,0
2016-11-25T00:57:05.310Z,0
2016-11-25T00:57:46.109Z,0
2016-11-25T00:58:27.652Z,0
2016-11-25T00:59:07.604Z,0
2016-11-25T00:59:48.359Z,0
2016-11-25T01:00:29.117Z,0
2016-11-25T01:01:09.895Z,0
2016-11-25T01:01:50.661Z,0
2016-11-25T01:02:31.388Z,0
2016-11-25T01:03:12.152Z,0
2016-11-25T01:03:52.955Z,0
2016-11-25T01:04:33.730Z,0
2016-11-25T01:05:14.493Z,0
2016-11-25T01:05:55.305Z,0
2016-11-25T01:06:36.030Z,0
2016-11-25T01:07:16.802Z,0
2016-11-25T01:07:57.596Z,0
2016-11-25T01:08:38.334Z,0
2016-11-25T01:09:19.109Z,0
2016-11-25T01:09:59.869Z,0
2016-11-25T01:10:40.632Z,0
2016-11-25T01:11:21.393Z,0
2016-11-25T01:12:02.155Z,0
2016-11-25T01:12:42.954Z,0
2016-11-25T01:13:23.713Z,0
2016-11-25T01:14:04.495Z,0
2016-11-25T01:14:45.275Z,0
2016-11-25T01:15:26.041Z,0
2016-11-25T01:16:06.815Z,0
2016-11-25T01:16:47.602Z,0
2016-11-25T01:17:28.361Z,0
2016-11-25T01:18:09.132Z,0
2016-11-25T01:18:49.927Z,0
2016-11-25T01:19:30.695Z,0
2016-11-25T01:20:11.465Z,0
2016-11-25T01:20:52.226Z,0
2016-11-25T01:21:33.016Z,0
2016-11-25T01:22:13.750Z,0
2016-11-25T01:22:54.550Z,0
2016-11-25T01:23:35.320Z,0
2016-11-25T01:24:16.046Z,0
2016-11-25T01:24:56.823Z,0
2016-11-25T01:25:37.615Z,0
2016-11-25T01:26:18.383Z,0
2016-11-25T01:26:59.168Z,0
2016-11-25T01:27:39.965Z,0
2016-11-25T01:28:20.699Z,0
2016-11-25T01:29:01.462Z,0
2016-11-25T01:29:42.246Z,0
2016-11-25T01:30:23.011Z,0
2016-11-25T01:31:03.783Z,0
2016-11-25T01:31:44.554Z,0
2016-11-25T01:32:25.313Z,0
2016-11-25T01:33:06.031Z,0
2016-11-25T01:33:46.786Z,0
2016-11-25T01:34:27.575Z,0
2016-11-25T01:35:08.323Z,0
2016-11-25T01:35:49.108Z,0
2016-11-25T01:36:29.854Z,0
2016-11-25T01:37:11.172Z,0
2016-11-25T01:37:51.363Z,0
2016-11-25T01:38:32.132Z,0
2016-11-25T01:39:12.898Z,0
2016-11-25T01:39:53.667Z,0
2016-11-25T01:40:34.478Z,0
2016-11-25T01:41:15.208Z,0
2016-11-25T01:41:55.964Z,0
2016-11-25T01:42:36.743Z,0
2016-11-25T01:43:17.513Z,0
2016-11-25T01:43:58.260Z,0
2016-11-25T01:44:39.034Z,0
2016-11-25T01:45:19.793Z,0
2016-11-25T01:46:00.523Z,0
2016-11-25T01:46:41.304Z,0
2016-11-25T01:47:22.058Z,0
2016-11-25T01:48:02.795Z,0
2016-11-25T01:48:43.545Z,0
2016-11-25T01:49:24.326Z,0
2016-11-25T01:50:05.086Z,0
2016-11-25T01:50:45.854Z,0
2016-11-25T01:51:26.637Z,0
2016-11-25T01:52:07.371Z,0
2016-11-25T01:52:48.129Z,0
2016-11-25T01:53:28.888Z,0
2016-11-25T01:54:09.680Z,0
2016-11-25T01:54:50.427Z,0
2016-11-25T01:55:31.208Z,0
2016-11-25T01:56:11.965Z,0
2016-11-25T01:56:52.690Z,0
2016-11-25T01:57:33.466Z,0
2016-11-25T01:58:14.238Z,0
2016-11-25T01:58:55.018Z,0
2016-11-25T01:59:35.828Z,0
2016-11-25T02:00:16.608Z,0
2016-11-25T02:00:57.350Z,0
2016-11-25T02:01:38.114Z,0
2016-11-25T02:02:18.894Z,0
2016-11-25T02:02:59.651Z,0
2016-11-25T02:03:40.395Z,0
2016-11-25T02:04:21.171Z,0
2016-11-25T02:05:01.940Z,0
2016-11-25T02:05:42.677Z,0
2016-11-25T02:06:23.461Z,0
2016-11-25T02:07:04.233Z,0
2016-11-25T02:07:44.999Z,0
2016-11-25T02:08:25.815Z,0
2016-11-25T02:09:06.570Z,0
2016-11-25T02:09:47.329Z,0
2016-11-25T02:10:28.092Z,0
2016-11-25T08:35:41.912Z,748
2016-11-25T08:36:22.713Z,752
2016-11-25T08:37:03.485Z,752
2016-11-25T08:37:44.237Z,748
2016-11-25T08:38:25.033Z,752
2016-11-25T08:39:05.792Z,752
2016-11-25T08:39:46.545Z,752
2016-11-25T08:40:27.328Z,756
2016-11-25T08:41:08.097Z,752
2016-11-25T08:41:48.872Z,752
2016-11-25T08:42:29.683Z,752
2016-11-25T08:43:10.454Z,752
2016-11-25T08:43:51.726Z,752
2016-11-25T08:44:31.997Z,752
2016-11-25T08:45:12.779Z,748
2016-11-25T08:45:53.552Z,748
2016-11-25T08:46:34.342Z,748
2016-11-25T08:47:15.147Z,752
2016-11-25T08:47:55.920Z,752
2016-11-25T08:48:37.228Z,748
2016-11-25T08:49:17.509Z,748
2016-11-25T08:49:58.269Z,752
2016-11-25T08:50:39.067Z,748
2016-11-25T08:51:19.847Z,752
2016-11-25T08:52:00.626Z,752
2016-11-25T08:52:41.357Z,748
2016-11-25T08:53:22.155Z,748
2016-11-25T08:54:02.952Z,748
2016-11-25T08:54:43.692Z,744
2016-11-25T08:55:24.486Z,744
2016-11-25T08:56:05.245Z,744
2016-11-25T08:56:46.061Z,744
2016-11-25T08:57:26.810Z,740
2016-11-25T08:58:07.591Z,740
2016-11-25T08:58:48.373Z,740
2016-11-25T08:59:29.171Z,740
2016-11-25T09:00:10.810Z,736
2016-11-25T09:00:52.233Z,740
2016-11-25T09:01:33.068Z,736
2016-11-25T09:02:13.851Z,740
2016-11-25T09:02:54.623Z,740
2016-11-25T09:03:35.398Z,740
2016-11-25T09:04:16.232Z,740
2016-11-25T09:04:58.243Z,744
2016-11-25T09:05:39.124Z,740
2016-11-25T09:06:19.941Z,736
2016-11-25T09:07:00.713Z,748
2016-11-25T09:07:41.495Z,748
2016-11-25T09:08:22.237Z,748
2016-11-25T09:09:03.034Z,744
2016-11-25T09:09:44.449Z,744
2016-11-25T09:10:25.225Z,744
2016-11-25T09:11:06.027Z,748
2016-11-25T09:11:46.803Z,752
2016-11-25T09:12:27.580Z,748
2016-11-25T09:13:09.244Z,752
2016-11-25T09:13:49.170Z,748
2016-11-25T09:14:29.936Z,752
2016-11-25T09:15:10.719Z,744
2016-11-25T09:15:51.497Z,744
2016-11-25T09:16:32.243Z,744
2016-11-25T09:17:13.035Z,748
2016-11-25T09:17:54.349Z,748
2016-11-25T09:18:35.114Z,748
2016-11-25T09:19:15.877Z,736
2016-11-25T09:19:56.667Z,744
2016-11-25T09:20:37.430Z,740
2016-11-25T09:21:19.162Z,740
2016-11-25T09:21:59.965Z,744
2016-11-25T09:22:40.738Z,744
2016-11-25T09:23:21.502Z,740
2016-11-25T09:24:02.298Z,740
2016-11-25T09:24:43.072Z,740
2016-11-25T09:25:23.842Z,740
2016-11-25T09:26:04.619Z,736
2016-11-25T09:26:45.404Z,740
2016-11-25T09:27:26.152Z,736
2016-11-25T09:28:06.970Z,736
2016-11-25T09:28:47.741Z,736
2016-11-25T09:29:29.248Z,736
2016-11-25T09:30:09.301Z,732
2016-11-25T09:30:50.652Z,736
2016-11-25T09:31:31.455Z,732
2016-11-25T09:32:12.228Z,736
2016-11-25T09:32:53.752Z,736
2016-11-25T09:33:33.832Z,740
2016-11-25T09:34:15.459Z,740
2016-11-25T09:34:56.249Z,736
2016-11-25T09:35:38.032Z,740
2016-11-25T09:36:18.777Z,740
2016-11-25T09:36:59.552Z,744
2016-11-25T09:37:41.224Z,744
2016-11-25T09:38:21.999Z,748
2016-11-25T09:39:02.758Z,736
2016-11-25T09:39:43.538Z,744
2016-11-25T09:40:24.293Z,744
2016-11-25T09:41:05.099Z,744
2016-11-25T09:41:45.898Z,744
2016-11-25T09:42:26.700Z,748
2016-11-25T09:43:07.482Z,732
2016-11-25T09:43:48.231Z,744
2016-11-25T09:44:29.023Z,748
2016-11-25T09:45:09.843Z,748
2016-11-25T09:45:50.698Z,752
2016-11-25T09:46:31.443Z,748
2016-11-25T09:47:12.253Z,744
2016-11-25T09:47:53.031Z,752
2016-11-25T09:48:33.799Z,752
2016-11-25T09:49:16.764Z,752
2016-11-25T09:49:57.042Z,752
2016-11-25T09:50:38.764Z,752
2016-11-25T09:51:19.766Z,744
2016-11-25T09:51:59.403Z,752
2016-11-25T09:52:40.186Z,748
2016-11-25T09:53:20.943Z,748
2016-11-25T09:54:01.713Z,748
2016-11-25T09:54:42.475Z,748
2016-11-25T09:55:23.267Z,752
2016-11-25T09:56:04.761Z,752
2016-11-25T09:56:44.797Z,752
2016-11-25T09:57:25.570Z,752
2016-11-25T09:58:07.270Z,748
2016-11-25T09:58:47.765Z,740
2016-11-25T09:59:27.925Z,748
2016-11-25T10:00:08.732Z,740
2016-11-25T10:00:49.493Z,732
2016-11-25T10:01:30.274Z,740
2016-11-25T10:02:11.054Z,744
2016-11-25T10:02:51.848Z,740
2016-11-25T10:03:32.617Z,732
2016-11-25T10:04:13.398Z,732
2016-11-25T10:04:54.172Z,736
2016-11-25T10:05:35.766Z,732
2016-11-25T10:06:15.724Z,736
2016-11-25T10:06:56.490Z,732
2016-11-25T10:07:37.246Z,732
2016-11-25T10:08:18.774Z,732
2016-11-25T10:08:58.870Z,732
2016-11-25T10:09:40.135Z,732
2016-11-25T10:10:20.896Z,736
2016-11-25T10:11:01.705Z,744
2016-11-25T10:11:42.494Z,740
2016-11-25T10:12:23.280Z,736
2016-11-25T10:13:04.071Z,736
2016-11-25T10:13:44.873Z,740
2016-11-25T10:14:25.661Z,744
2016-11-25T10:15:06.436Z,740
2016-11-25T10:15:47.230Z,744
2016-11-25T10:16:28.016Z,744
2016-11-25T10:17:08.792Z,744
2016-11-25T10:17:49.568Z,744
2016-11-25T10:18:30.339Z,740
2016-11-25T10:19:11.108Z,740
2016-11-25T10:19:51.939Z,740
2016-11-25T10:20:32.706Z,736
2016-11-25T10:21:13.495Z,744
2016-11-25T10:21:54.308Z,740
2016-11-25T10:22:35.057Z,744
2016-11-25T10:23:16.781Z,740
2016-11-25T10:23:56.681Z,740
2016-11-25T10:24:37.460Z,744
2016-11-25T10:25:19.784Z,744
2016-11-25T10:25:59.842Z,740
2016-11-25T10:26:41.325Z,736
2016-11-25T10:27:22.085Z,740
2016-11-25T10:28:02.868Z,744
2016-11-25T10:28:43.634Z,744
2016-11-25T10:29:24.400Z,744
2016-11-25T10:30:05.173Z,744
2016-11-25T10:30:45.950Z,744
2016-11-25T10:31:26.706Z,744
2016-11-25T10:32:08.284Z,744
2016-11-25T10:32:48.280Z,740
2016-11-25T10:33:29.062Z,744
2016-11-25T10:34:09.819Z,740
2016-11-25T10:34:51.291Z,740
2016-11-25T10:35:32.220Z,740
2016-11-25T10:36:12.976Z,740
2016-11-25T10:36:54.416Z,736
2016-11-25T10:37:35.169Z,736
2016-11-25T10:38:15.913Z,732
2016-11-25T10:38:56.705Z,728
2016-11-25T10:39:37.496Z,732
2016-11-25T10:40:18.308Z,736
2016-11-25T10:40:59.787Z,736
2016-11-25T10:41:40.665Z,736
2016-11-25T10:42:21.431Z,736
2016-11-25T10:43:02.203Z,736
2016-11-25T10:43:43.026Z,736
2016-11-25T10:44:23.799Z,740
2016-11-25T10:45:05.522Z,740
2016-11-25T10:45:47.053Z,744
2016-11-25T10:46:27.845Z,740
2016-11-25T10:47:08.657Z,744
2016-11-25T10:47:50.430Z,744
2016-11-25T10:49:49.726Z,736
2016-11-25T10:50:30.529Z,740
2016-11-25T10:51:11.287Z,736
2016-11-25T10:51:52.806Z,736
2016-11-25T10:52:33.603Z,732
2016-11-25T10:53:14.372Z,736
2016-11-25T10:53:55.161Z,736
2016-11-25T10:54:36.823Z,736
2016-11-25T10:55:17.611Z,736
2016-11-25T10:55:58.404Z,740
2016-11-25T10:56:39.175Z,736
2016-11-25T10:57:19.974Z,740
2016-11-25T10:58:00.728Z,736
2016-11-25T10:58:41.531Z,740
2016-11-25T10:59:22.305Z,740
2016-11-25T11:00:03.090Z,736
2016-11-25T11:00:43.869Z,736
2016-11-25T11:01:24.656Z,736
2016-11-25T11:02:05.410Z,736
2016-11-25T11:02:46.197Z,736
2016-11-25T11:03:26.968Z,736
2016-11-25T11:04:07.734Z,736
2016-11-25T11:04:49.058Z,736
2016-11-25T11:05:29.324Z,740
2016-11-25T11:06:10.069Z,736
2016-11-25T11:06:50.916Z,740
2016-11-25T11:07:32.556Z,736
2016-11-25T11:08:15.055Z,736
2016-11-25T11:08:55.794Z,736
2016-11-25T11:09:36.579Z,740
2016-11-25T11:10:18.055Z,736
2016-11-25T11:10:58.168Z,740
2016-11-25T11:11:39.564Z,736
2016-11-25T11:12:19.746Z,736
2016-11-25T11:13:00.512Z,740
2016-11-25T11:13:41.302Z,732
2016-11-25T11:14:22.071Z,736
2016-11-25T11:15:02.835Z,684
2016-11-25T11:15:44.561Z,740
2016-11-25T11:16:24.417Z,740
2016-11-25T11:17:06.109Z,736
2016-11-25T11:17:46.845Z,736
2016-11-25T11:18:27.647Z,732
2016-11-25T11:19:08.377Z,740
2016-11-25T11:19:49.165Z,740
2016-11-25T11:20:29.955Z,740
2016-11-25T11:21:10.717Z,740
2016-11-25T11:21:51.476Z,736
2016-11-25T11:22:32.271Z,736
2016-11-25T11:23:13.050Z,736
2016-11-25T11:23:54.503Z,740
2016-11-25T11:24:35.406Z,740
2016-11-25T11:25:16.254Z,740
2016-11-25T11:25:57.015Z,740
2016-11-25T11:26:37.782Z,740
2016-11-25T11:27:18.565Z,740
2016-11-25T11:27:59.327Z,740
2016-11-25T11:28:40.144Z,736
2016-11-25T11:29:21.041Z,740
2016-11-25T11:30:01.979Z,736
2016-11-25T11:30:42.736Z,736
2016-11-25T11:31:23.523Z,736
2016-11-25T11:32:04.302Z,740
2016-11-25T11:32:45.109Z,736
2016-11-25T11:33:25.917Z,736
2016-11-25T11:34:06.694Z,740
2016-11-25T11:34:47.450Z,740
2016-11-25T11:35:28.230Z,736
2016-11-25T11:36:09.008Z,740
2016-11-25T11:36:49.763Z,736
2016-11-25T11:37:30.605Z,740
2016-11-25T11:38:11.396Z,740
2016-11-25T11:38:52.202Z,736
2016-11-25T11:39:33.575Z,740
2016-11-25T11:40:13.804Z,744
2016-11-25T11:40:54.572Z,740
2016-11-25T11:41:36.073Z,740
2016-11-25T11:42:16.149Z,740
2016-11-25T11:42:56.942Z,740
2016-11-25T11:43:37.720Z,740
2016-11-25T11:44:18.521Z,740
2016-11-25T11:44:59.280Z,744
2016-11-25T11:45:40.055Z,744
2016-11-25T11:46:20.837Z,740
2016-11-25T11:47:01.646Z,744
2016-11-25T11:47:43.313Z,744
2016-11-25T11:48:24.159Z,744
2016-11-25T11:49:04.971Z,744
2016-11-25T11:49:45.729Z,740
2016-11-25T11:50:26.523Z,740
2016-11-25T11:51:08.081Z,740
2016-11-25T11:51:48.087Z,740
2016-11-25T11:52:28.911Z,740
2016-11-25T11:53:09.708Z,740
2016-11-25T11:53:50.505Z,740
2016-11-25T11:54:31.260Z,744
2016-11-25T11:55:12.065Z,744
2016-11-25T11:55:52.865Z,744
2016-11-25T11:56:33.668Z,740
2016-11-25T11:57:14.474Z,740
2016-11-25T11:57:55.298Z,740
2016-11-25T11:58:36.069Z,740
2016-11-25T11:59:16.859Z,744
2016-11-25T11:59:57.703Z,744
2016-11-25T12:00:38.476Z,740
2016-11-25T12:01:20.092Z,744
2016-11-25T12:02:00.111Z,744
2016-11-25T12:02:40.888Z,740
2016-11-25T12:03:21.686Z,740
2016-11-25T12:04:02.466Z,740
2016-11-25T12:04:43.241Z,740
2016-11-25T12:05:24.009Z,740
2016-11-25T12:06:04.810Z,740
2016-11-25T12:06:45.613Z,740
2016-11-25T12:07:26.399Z,740
2016-11-25T12:08:07.180Z,740
2016-11-25T12:08:48.083Z,740
2016-11-25T12:09:28.908Z,740
2016-11-25T12:10:09.706Z,740
2016-11-25T12:10:50.499Z,740
2016-11-25T12:11:31.240Z,736
2016-11-25T12:12:12.038Z,740
2016-11-25T12:12:52.814Z,740
2016-11-25T12:13:33.603Z,740
2016-11-25T12:14:14.433Z,736
2016-11-25T12:14:55.235Z,740
2016-11-25T12:15:36.023Z,740
2016-11-25T12:16:16.807Z,740
2016-11-25T12:16:57.625Z,740
2016-11-25T12:17:39.002Z,740
2016-11-25T12:18:19.812Z,736
2016-11-25T12:19:00.602Z,740
2016-11-25T12:19:41.409Z,740
2016-11-25T12:20:22.185Z,740
2016-11-25T12:21:03.002Z,740
2016-11-25T12:21:43.763Z,740
2016-11-25T12:22:25.096Z,740
2016-11-25T12:23:05.290Z,744
2016-11-25T12:23:46.106Z,744
2016-11-25T12:24:26.921Z,740
2016-11-25T12:25:07.689Z,740
2016-11-25T12:25:49.309Z,744
2016-11-25T12:26:30.128Z,740
2016-11-25T12:27:10.898Z,744
2016-11-25T12:27:51.700Z,740
2016-11-25T12:28:32.512Z,740
2016-11-25T12:29:13.307Z,740
2016-11-25T12:29:54.121Z,740
2016-11-25T12:30:34.886Z,740
2016-11-25T12:31:15.671Z,744
2016-11-25T12:31:56.467Z,748
2016-11-25T12:32:37.243Z,744
2016-11-25T12:33:17.999Z,748
2016-11-25T12:33:58.800Z,748
2016-11-25T12:34:39.585Z,748
2016-11-25T12:35:20.387Z,748
2016-11-25T12:36:01.162Z,748
2016-11-25T12:36:41.968Z,748
2016-11-25T12:37:22.753Z,748
2016-11-25T12:38:03.528Z,748
2016-11-25T12:38:45.119Z,748
2016-11-25T12:39:25.073Z,748
2016-11-25T12:40:05.849Z,748
2016-11-25T12:40:46.637Z,748
2016-11-25T12:41:28.029Z,744
2016-11-25T12:42:08.799Z,748
2016-11-25T12:42:49.559Z,748
2016-11-25T12:43:31.056Z,744
2016-11-25T12:44:11.828Z,744
2016-11-25T12:44:52.624Z,744
2016-11-25T12:45:33.416Z,744
2016-11-25T12:46:14.221Z,748
2016-11-25T12:46:54.978Z,748
2016-11-25T12:47:35.814Z,744
2016-11-25T12:48:16.599Z,744
2016-11-25T12:48:57.391Z,748
2016-11-25T12:49:38.209Z,744
2016-11-25T12:50:18.969Z,748
2016-11-25T12:50:59.750Z,748
2016-11-25T12:51:40.532Z,748
2016-11-25T12:52:21.316Z,748
2016-11-25T12:53:02.080Z,748
2016-11-25T12:53:42.883Z,752
2016-11-25T12:54:23.650Z,748
2016-11-25T12:55:04.396Z,752
2016-11-25T12:55:45.153Z,752
2016-11-25T12:56:25.928Z,748
2016-11-25T12:57:06.748Z,752
2016-11-25T12:57:47.739Z,752
2016-11-25T12:58:28.597Z,752
2016-11-25T12:59:10.117Z,752
2016-11-25T12:59:51.622Z,748
2016-11-25T13:00:31.777Z,748
2016-11-25T13:01:12.601Z,748
2016-11-25T13:01:53.352Z,748
2016-11-25T13:02:34.110Z,748
2016-11-25T13:03:14.866Z,748
2016-11-25T13:03:55.673Z,748
2016-11-25T13:04:36.430Z,748
2016-11-25T13:05:17.202Z,748
2016-11-25T13:05:58.009Z,748
2016-11-25T13:06:38.783Z,748
2016-11-25T13:07:19.537Z,748
2016-11-25T13:08:00.305Z,748
2016-11-25T13:08:41.060Z,748
2016-11-25T13:09:21.814Z,748
2016-11-25T13:10:02.581Z,752
2016-11-25T13:10:43.363Z,752
2016-11-25T13:11:24.093Z,752
2016-11-25T13:12:04.874Z,748
2016-11-25T13:12:45.625Z,752
2016-11-25T13:13:26.437Z,748
2016-11-25T13:14:07.182Z,748
2016-11-25T13:14:47.963Z,748
2016-11-25T13:15:28.729Z,748
2016-11-25T13:16:09.481Z,748
2016-11-25T13:16:50.265Z,748
2016-11-25T13:17:31.023Z,748
2016-11-25T13:18:11.794Z,748
2016-11-25T13:18:52.561Z,748
2016-11-25T13:19:33.337Z,744
2016-11-25T13:20:14.106Z,744
2016-11-25T13:20:54.887Z,744
2016-11-25T13:21:35.662Z,748
2016-11-25T13:22:16.415Z,744
2016-11-25T13:22:57.214Z,744
2016-11-25T13:23:37.970Z,744
2016-11-25T13:24:18.735Z,744
2016-11-25T13:24:59.517Z,744
2016-11-25T13:25:40.268Z,740
2016-11-25T13:26:21.006Z,744
2016-11-25T13:27:01.757Z,744
2016-11-25T13:27:42.587Z,740
2016-11-25T13:28:23.337Z,740
2016-11-25T13:29:04.083Z,744
2016-11-25T13:29:44.851Z,740
2016-11-25T13:30:25.643Z,740
2016-11-25T13:31:06.405Z,740
2016-11-25T13:31:47.850Z,740
2016-11-25T13:32:28.608Z,736
2016-11-25T13:33:09.397Z,740
2016-11-25T13:33:50.157Z,740
2016-11-25T13:34:30.932Z,740
2016-11-25T13:35:11.673Z,740
2016-11-25T13:35:52.425Z,740
2016-11-25T13:36:33.212Z,740
2016-11-25T13:37:13.959Z,740
2016-11-25T13:37:54.727Z,736
2016-11-25T13:38:35.516Z,740
2016-11-25T13:39:16.275Z,736
2016-11-25T13:39:57.059Z,740
2016-11-25T13:40:37.833Z,736
2016-11-25T13:41:18.610Z,736
2016-11-25T13:41:59.406Z,736
2016-11-25T13:42:40.187Z,736
2016-11-25T13:43:20.962Z,736
2016-11-25T13:44:01.705Z,736
2016-11-25T13:44:42.492Z,732
2016-11-25T13:45:23.275Z,736
2016-11-25T13:46:04.066Z,736
2016-11-25T13:46:44.843Z,732
2016-11-25T13:47:25.663Z,732
2016-11-25T13:48:06.439Z,732
2016-11-25T13:48:47.209Z,732
2016-11-25T13:49:28.010Z,732
2016-11-25T13:50:08.781Z,736
2016-11-25T13:50:49.561Z,732
2016-11-25T13:51:30.324Z,732
2016-11-25T13:52:11.111Z,732
2016-11-25T13:52:51.861Z,732
2016-11-25T13:53:32.629Z,732
2016-11-25T13:54:13.430Z,732
2016-11-25T13:54:54.203Z,728
2016-11-25T13:55:34.981Z,732
2016-11-25T13:56:15.761Z,732
2016-11-25T13:56:56.511Z,728
2016-11-25T13:57:37.256Z,724
2016-11-25T13:58:18.055Z,728
2016-11-25T13:58:58.807Z,728
2016-11-25T13:59:39.546Z,728
2016-11-25T14:00:20.325Z,724
2016-11-25T14:01:01.072Z,728
2016-11-25T14:01:41.855Z,728
2016-11-25T14:02:22.668Z,728
2016-11-25T14:03:03.473Z,724
2016-11-25T14:03:44.246Z,728
2016-11-25T14:04:25.026Z,728
2016-11-25T14:05:05.832Z,728
2016-11-25T14:05:46.584Z,728
2016-11-25T14:06:27.383Z,728
2016-11-25T14:07:08.156Z,728
2016-11-25T14:07:48.928Z,724
2016-11-25T14:08:29.692Z,724
2016-11-25T14:09:10.468Z,724
2016-11-25T14:09:51.252Z,724
2016-11-25T14:10:32.012Z,724
2016-11-25T14:11:12.837Z,724
2016-11-25T14:11:53.752Z,724
2016-11-25T14:12:34.556Z,724
2016-11-25T14:13:15.388Z,724
2016-11-25T14:13:56.148Z,724
2016-11-25T14:14:36.897Z,724
2016-11-25T14:15:17.674Z,724
2016-11-25T14:15:58.467Z,724
2016-11-25T14:16:39.216Z,728
2016-11-25T14:17:20.425Z,728
2016-11-25T14:18:01.129Z,728
2016-11-25T14:18:41.925Z,724
2016-11-25T14:19:22.731Z,724
2016-11-25T14:20:03.765Z,724
2016-11-25T14:20:44.512Z,724
2016-11-25T14:21:25.294Z,724
2016-11-25T14:22:06.091Z,724
2016-11-25T14:22:46.883Z,724
2016-11-25T14:23:27.661Z,728
2016-11-25T14:24:08.429Z,724
2016-11-25T14:24:49.223Z,728
2016-11-25T14:25:29.963Z,728
2016-11-25T14:26:10.758Z,724
2016-11-25T14:26:51.574Z,724
2016-11-25T14:27:32.339Z,724
2016-11-25T14:28:13.118Z,724
2016-11-25T14:28:53.918Z,724
2016-11-25T14:29:34.686Z,724
2016-11-25T14:30:16.428Z,724
2016-11-25T14:30:57.266Z,724
2016-11-25T14:31:38.041Z,724
2016-11-25T14:32:18.833Z,724
2016-11-25T14:32:59.637Z,724
2016-11-25T14:33:40.406Z,724
2016-11-25T14:34:21.169Z,724
2016-11-25T14:35:02.929Z,724
2016-11-25T14:35:43.716Z,724
2016-11-25T14:36:24.495Z,724
2016-11-25T14:37:05.254Z,724
2016-11-25T14:37:46.098Z,720
2016-11-25T14:38:26.862Z,720
2016-11-25T14:39:07.632Z,720
2016-11-25T14:39:48.414Z,720
2016-11-25T14:40:29.183Z,720
2016-11-25T14:41:09.948Z,724
2016-11-25T14:41:50.730Z,724
2016-11-25T14:42:31.497Z,724
2016-11-25T14:43:12.266Z,724
2016-11-25T14:43:53.060Z,720
2016-11-25T14:44:33.822Z,724
2016-11-25T14:45:14.586Z,724
2016-11-25T14:45:55.348Z,724
2016-11-25T14:46:36.148Z,724
2016-11-25T14:47:17.136Z,720
2016-11-25T14:47:57.846Z,724
2016-11-25T14:48:38.642Z,724
2016-11-25T14:49:19.367Z,728
2016-11-25T14:50:00.138Z,724
2016-11-25T14:50:40.906Z,724
2016-11-25T14:51:21.675Z,724
2016-11-25T14:52:02.472Z,724
2016-11-25T14:52:43.268Z,724
2016-11-25T14:53:24.029Z,724
2016-11-25T14:54:04.792Z,724
2016-11-25T14:54:45.571Z,724
2016-11-25T14:55:26.335Z,724
2016-11-25T14:56:07.103Z,724
2016-11-25T14:56:47.857Z,728
2016-11-25T14:57:28.643Z,724
2016-11-25T14:58:09.396Z,724
2016-11-25T14:58:50.167Z,724
2016-11-25T14:59:30.934Z,724
2016-11-25T15:00:11.660Z,724
2016-11-25T15:00:52.459Z,724
2016-11-25T15:01:33.237Z,724
2016-11-25T15:02:14.036Z,724
2016-11-25T15:02:54.819Z,724
2016-11-25T15:03:35.620Z,720
2016-11-25T15:04:16.363Z,724
2016-11-25T15:04:57.148Z,724
2016-11-25T15:05:37.947Z,724
2016-11-25T15:06:18.743Z,720
2016-11-25T15:06:59.544Z,720
2016-11-25T15:07:40.370Z,720
2016-11-25T15:08:21.157Z,720
2016-11-25T15:09:01.932Z,716
2016-11-25T15:09:42.697Z,720
2016-11-25T15:10:24.478Z,720
2016-11-25T15:11:05.211Z,720
2016-11-25T15:11:46.022Z,716
2016-11-25T15:12:26.776Z,720
2016-11-25T15:13:07.542Z,720
2016-11-25T15:13:48.291Z,716
2016-11-25T15:14:29.082Z,712
2016-11-25T15:15:09.863Z,704
2016-11-25T15:15:50.635Z,704
2016-11-25T15:16:31.416Z,708
2016-11-25T15:17:12.182Z,708
2016-11-25T15:17:52.967Z,708
2016-11-25T15:18:33.732Z,708
2016-11-25T15:19:14.528Z,708
2016-11-25T15:19:55.381Z,708
2016-11-25T15:20:36.147Z,708
2016-11-25T15:21:16.938Z,704
2016-11-25T15:21:57.741Z,708
2016-11-25T15:22:38.494Z,708
2016-11-25T15:23:19.258Z,708
2016-11-25T15:24:00.048Z,708
2016-11-25T15:24:40.841Z,704
2016-11-25T15:25:21.640Z,704
2016-11-25T15:26:02.408Z,704
2016-11-25T15:26:43.717Z,704
2016-11-25T15:27:24.702Z,708
2016-11-25T15:28:04.821Z,708
2016-11-25T15:28:45.589Z,704
2016-11-25T15:29:26.394Z,696
2016-11-25T15:30:07.231Z,700
2016-11-25T15:30:48.016Z,704
2016-11-25T15:31:29.303Z,700
2016-11-25T15:32:10.115Z,704
2016-11-25T15:32:50.908Z,704
2016-11-25T15:33:31.681Z,704
2016-11-25T15:34:12.450Z,704
2016-11-25T15:34:53.223Z,700
2016-11-25T15:35:34.021Z,704
2016-11-25T15:36:14.767Z,704
2016-11-25T15:36:55.526Z,696
2016-11-25T15:37:36.286Z,704
2016-11-25T15:38:17.063Z,704
2016-11-25T15:38:57.887Z,704
2016-11-25T15:39:38.659Z,700
2016-11-25T15:40:19.436Z,704
2016-11-25T15:41:00.707Z,704
2016-11-25T15:41:41.045Z,700
2016-11-25T15:42:21.811Z,704
2016-11-25T15:43:02.572Z,704
2016-11-25T15:43:43.344Z,704
2016-11-25T15:44:24.121Z,704
2016-11-25T15:45:04.952Z,704
2016-11-25T15:45:45.717Z,704
2016-11-25T15:46:26.553Z,700
2016-11-25T15:47:07.320Z,696
2016-11-25T15:47:48.116Z,708
2016-11-25T15:48:28.937Z,708
2016-11-25T15:49:09.713Z,704
2016-11-25T15:49:51.471Z,704
2016-11-25T15:50:32.252Z,704
2016-11-25T15:51:13.048Z,704
2016-11-25T15:51:54.472Z,704
2016-11-25T15:52:35.261Z,704
2016-11-25T15:53:16.915Z,700
2016-11-25T15:53:57.680Z,704
2016-11-25T15:54:38.721Z,700
2016-11-25T15:55:19.244Z,700
2016-11-25T15:56:00.044Z,700
2016-11-25T15:56:40.821Z,700